Flight Track Log - Related Links

Times and Time Zones

All times are in EDT time to prevent confusion due to time zone crossing. See the N465TP flight status page for this flight to view local times or setup timezone preferences in your user account.

Time Position Orientation Groundspeed Altitude Reporting Facility
EDT Latitude Longitude Course Direction KTS MPH feet Rate Location/Type
Thu 07:38:25 PM 44.9233 -105.4681 262° West 195 224 17,800  Level Denver Center
Thu 07:39:27 PM 44.9164 -105.5406 262° West 192 221 19,200 1,016 Climbing Denver Center
Thu 07:40:29 PM 44.9103 -105.6125 263° West 185 213 19,900 387 Climbing Denver Center
Thu 07:41:31 PM 44.9019 -105.6961 262° West 206 237 20,000 44 Climbing Denver Center
Thu 07:42:46 PM 44.8917 -105.8069 263° West 235 270 20,000  Level Salt Lake Center
Thu 07:43:48 PM 44.8808 -105.9183 262° West 239 275 20,000  Level Salt Lake Center
Thu 07:44:37 PM 44.8725 -105.9939 261° West 240 276 20,000  Level Denver Center
Thu 07:45:39 PM 44.8631 -106.0861 262° West 240 276 20,000  Level Denver Center
Thu 07:46:41 PM 44.8539 -106.1794 262° West 241 277 20,000  Level Denver Center
Thu 07:47:43 PM 44.8439 -106.2722 261° West 240 276 20,000  Level Denver Center
Thu 07:48:45 PM 44.8336 -106.3658 261° West 242 278 20,000  Level Denver Center
Thu 07:49:48 PM 44.8239 -106.4597 262° West 243 280 20,000  Level Denver Center
Thu 07:50:50 PM 44.8128 -106.5708 262° West 241 277 20,000  Level Denver Center
Thu 07:51:52 PM 44.8028 -106.6650 262° West 243 280 20,000  Level Denver Center
Thu 07:52:54 PM 44.7928 -106.7581 261° West 241 277 20,000  Level Denver Center
Thu 07:53:56 PM 44.7817 -106.8522 261° West 243 280 20,000  Level Denver Center
Thu 07:55:08 PM 44.7697 -106.9647 262° West 245 282 20,000  Level Salt Lake Center
Thu 07:56:10 PM 44.7592 -107.0583 261° West 245 282 20,000  Level Salt Lake Center
Thu 07:57:12 PM 44.7481 -107.1528 261° West 244 281 20,000  Level Salt Lake Center
Thu 07:58:14 PM 44.7350 -107.2661 261° West 245 282 20,000  Level Salt Lake Center
Thu 07:59:15 PM 44.7244 -107.3600 261° West 245 282 20,000  Level Salt Lake Center
Thu 08:00:17 PM 44.7119 -107.4519 259° West 242 278 20,000  Level Salt Lake Center
Thu 08:01:19 PM 44.7011 -107.5450 261° West 241 277 20,000  Level Salt Lake Center
Thu 08:02:21 PM 44.6903 -107.6403 261° West 243 280 20,000  Level Salt Lake Center
Thu 08:03:22 PM 44.6789 -107.7347 260° West 244 281 20,000  Level Salt Lake Center
Thu 08:04:24 PM 44.6678 -107.8297 261° West 244 281 20,000  Level Salt Lake Center
Thu 08:05:26 PM 44.6564 -107.9256 261° West 245 282 20,000  Level Salt Lake Center
Thu 08:06:28 PM 44.6444 -108.0214 260° West 247 284 20,000  Level Salt Lake Center
Thu 08:07:29 PM 44.6317 -108.1347 261° West 245 282 20,000  Level Salt Lake Center
Thu 08:08:31 PM 44.6203 -108.2289 260° West 244 281 20,000 -48 Level Salt Lake Center
Thu 08:09:33 PM 44.6094 -108.3233 261° West 244 281 19,900 -823 Descending Salt Lake Center
Thu 08:10:35 PM 44.5981 -108.4147 260° West 241 277 18,300 -1,452 Descending Salt Lake Center
Thu 08:11:37 PM 44.5881 -108.5019 261° West 233 268 16,900 -1,463 Descending Salt Lake Center
Thu 08:12:38 PM 44.5769 -108.5903 260° West 231 266 15,300 -1,561 Descending Salt Lake Center
Thu 08:13:40 PM 44.5656 -108.6778 260° West 230 265 13,700 -1,548 Descending Salt Lake Center

Login

Don't have an account? Register now (free) for customized features, flight alerts, and more!